Terminal Aerodrome Forecast
Issued by NWS Sterling, VA

Home | Current Version | Previous Version | Text Only | Print | Product List | Glossary On
Versions: 1 2 3 4 5 6 7 8 9 10 11 12 13 14 15 16 17 18 19 20 21 22 23
000
FTUS41 KLWX 160837 AAA
TAFBWI
TAF AMD
KBWI 160837Z 1609/1712 00000KT P6SM BKN035 BKN190
     FM161500 16004KT P6SM OVC050
     FM162300 00000KT P6SM SCT015 OVC025
     FM170600 08002KT P6SM OVC015=

USA.gov is the U.S. government's official web portal to all federal, state and local government web resources and services.